sensor_id;sensor_type;location;lat;lon;timestamp;temperature;humidity
75621;DHT22;64574;48.506;-2.750;2024-02-21T00:01:21;9.80;82.00
75621;DHT22;64574;48.506;-2.750;2024-02-21T00:03:47;9.80;82.10
75621;DHT22;64574;48.506;-2.750;2024-02-21T00:06:12;9.80;82.00
75621;DHT22;64574;48.506;-2.750;2024-02-21T00:08:38;9.80;82.30
75621;DHT22;64574;48.506;-2.750;2024-02-21T00:11:03;9.80;82.20
75621;DHT22;64574;48.506;-2.750;2024-02-21T00:13:29;9.80;82.40
75621;DHT22;64574;48.506;-2.750;2024-02-21T00:15:55;9.80;82.40
75621;DHT22;64574;48.506;-2.750;2024-02-21T00:18:21;9.80;82.10
75621;DHT22;64574;48.506;-2.750;2024-02-21T00:20:47;9.80;82.00
75621;DHT22;64574;48.506;-2.750;2024-02-21T00:23:12;9.90;81.90
75621;DHT22;64574;48.506;-2.750;2024-02-21T00:25:38;9.90;81.90
75621;DHT22;64574;48.506;-2.750;2024-02-21T00:28:03;9.90;81.60
75621;DHT22;64574;48.506;-2.750;2024-02-21T00:30:29;9.90;81.40
75621;DHT22;64574;48.506;-2.750;2024-02-21T00:32:54;9.80;81.20
75621;DHT22;64574;48.506;-2.750;2024-02-21T00:35:20;9.80;81.40
75621;DHT22;64574;48.506;-2.750;2024-02-21T00:37:45;9.80;81.30
75621;DHT22;64574;48.506;-2.750;2024-02-21T00:40:11;9.90;81.20
75621;DHT22;64574;48.506;-2.750;2024-02-21T00:42:37;9.90;81.20
75621;DHT22;64574;48.506;-2.750;2024-02-21T00:45:02;9.90;81.00
75621;DHT22;64574;48.506;-2.750;2024-02-21T00:47:28;10.00;80.80
75621;DHT22;64574;48.506;-2.750;2024-02-21T00:49:53;10.00;80.30
75621;DHT22;64574;48.506;-2.750;2024-02-21T00:52:19;10.00;79.80
75621;DHT22;64574;48.506;-2.750;2024-02-21T00:54:44;10.00;79.50
75621;DHT22;64574;48.506;-2.750;2024-02-21T00:57:10;10.00;79.50
75621;DHT22;64574;48.506;-2.750;2024-02-21T00:59:35;10.00;79.30
75621;DHT22;64574;48.506;-2.750;2024-02-21T01:02:01;10.00;79.10
75621;DHT22;64574;48.506;-2.750;2024-02-21T01:04:26;10.00;78.80
75621;DHT22;64574;48.506;-2.750;2024-02-21T01:06:52;10.00;79.10
75621;DHT22;64574;48.506;-2.750;2024-02-21T01:09:17;10.00;79.30
75621;DHT22;64574;48.506;-2.750;2024-02-21T01:11:43;10.00;79.40
75621;DHT22;64574;48.506;-2.750;2024-02-21T01:14:08;10.00;79.20
75621;DHT22;64574;48.506;-2.750;2024-02-21T01:16:34;10.10;79.20
75621;DHT22;64574;48.506;-2.750;2024-02-21T01:18:59;10.00;78.90
75621;DHT22;64574;48.506;-2.750;2024-02-21T01:21:25;10.00;78.90
75621;DHT22;64574;48.506;-2.750;2024-02-21T01:23:50;10.00;78.40
75621;DHT22;64574;48.506;-2.750;2024-02-21T01:26:16;10.00;78.70
75621;DHT22;64574;48.506;-2.750;2024-02-21T01:28:41;9.90;78.20
75621;DHT22;64574;48.506;-2.750;2024-02-21T01:31:07;10.00;78.20
75621;DHT22;64574;48.506;-2.750;2024-02-21T01:33:33;10.00;78.30
75621;DHT22;64574;48.506;-2.750;2024-02-21T01:36:01;10.00;78.10
75621;DHT22;64574;48.506;-2.750;2024-02-21T01:38:27;10.00;77.90
75621;DHT22;64574;48.506;-2.750;2024-02-21T01:40:53;10.00;77.70
75621;DHT22;64574;48.506;-2.750;2024-02-21T01:43:19;10.00;77.40
75621;DHT22;64574;48.506;-2.750;2024-02-21T01:45:46;10.00;77.50
75621;DHT22;64574;48.506;-2.750;2024-02-21T01:48:13;10.00;77.40
75621;DHT22;64574;48.506;-2.750;2024-02-21T01:50:39;10.00;77.60
75621;DHT22;64574;48.506;-2.750;2024-02-21T01:53:04;10.00;77.80
75621;DHT22;64574;48.506;-2.750;2024-02-21T01:55:30;10.00;77.90
75621;DHT22;64574;48.506;-2.750;2024-02-21T01:57:56;10.00;77.90
75621;DHT22;64574;48.506;-2.750;2024-02-21T02:00:21;10.00;78.00
75621;DHT22;64574;48.506;-2.750;2024-02-21T02:02:47;10.00;77.90
75621;DHT22;64574;48.506;-2.750;2024-02-21T02:05:13;10.00;77.80
75621;DHT22;64574;48.506;-2.750;2024-02-21T02:07:38;10.00;78.00
75621;DHT22;64574;48.506;-2.750;2024-02-21T02:10:04;10.00;77.90
75621;DHT22;64574;48.506;-2.750;2024-02-21T02:12:29;10.00;77.90
75621;DHT22;64574;48.506;-2.750;2024-02-21T02:14:59;10.00;78.10
75621;DHT22;64574;48.506;-2.750;2024-02-21T02:17:24;10.00;78.00
75621;DHT22;64574;48.506;-2.750;2024-02-21T02:19:50;10.00;78.00
75621;DHT22;64574;48.506;-2.750;2024-02-21T02:22:17;10.10;77.80
75621;DHT22;64574;48.506;-2.750;2024-02-21T02:24:45;10.00;77.80
75621;DHT22;64574;48.506;-2.750;2024-02-21T02:27:10;10.00;77.90
75621;DHT22;64574;48.506;-2.750;2024-02-21T02:29:36;10.00;77.90
75621;DHT22;64574;48.506;-2.750;2024-02-21T02:32:02;10.00;77.90
75621;DHT22;64574;48.506;-2.750;2024-02-21T02:34:27;10.00;77.90
75621;DHT22;64574;48.506;-2.750;2024-02-21T02:36:53;10.00;77.90
75621;DHT22;64574;48.506;-2.750;2024-02-21T02:39:19;10.00;78.20
75621;DHT22;64574;48.506;-2.750;2024-02-21T02:41:45;10.00;78.30
75621;DHT22;64574;48.506;-2.750;2024-02-21T02:44:11;10.00;78.50
75621;DHT22;64574;48.506;-2.750;2024-02-21T02:46:36;10.00;78.50
75621;DHT22;64574;48.506;-2.750;2024-02-21T02:49:02;10.00;78.40
75621;DHT22;64574;48.506;-2.750;2024-02-21T02:51:27;10.00;78.20
75621;DHT22;64574;48.506;-2.750;2024-02-21T02:53:53;10.00;78.20
75621;DHT22;64574;48.506;-2.750;2024-02-21T02:56:19;10.00;78.40
75621;DHT22;64574;48.506;-2.750;2024-02-21T02:58:44;10.00;78.20
75621;DHT22;64574;48.506;-2.750;2024-02-21T03:01:10;10.00;78.10
75621;DHT22;64574;48.506;-2.750;2024-02-21T03:03:35;10.00;78.00
75621;DHT22;64574;48.506;-2.750;2024-02-21T03:06:01;10.10;77.90
75621;DHT22;64574;48.506;-2.750;2024-02-21T03:08:26;10.00;77.90
75621;DHT22;64574;48.506;-2.750;2024-02-21T03:10:52;10.00;78.00
75621;DHT22;64574;48.506;-2.750;2024-02-21T03:13:17;10.00;78.10
75621;DHT22;64574;48.506;-2.750;2024-02-21T03:15:43;10.10;78.00
75621;DHT22;64574;48.506;-2.750;2024-02-21T03:18:08;10.00;78.30
75621;DHT22;64574;48.506;-2.750;2024-02-21T03:20:34;10.00;78.50
75621;DHT22;64574;48.506;-2.750;2024-02-21T03:22:59;10.00;78.60
75621;DHT22;64574;48.506;-2.750;2024-02-21T03:25:25;10.00;78.60
75621;DHT22;64574;48.506;-2.750;2024-02-21T03:27:50;10.00;78.60
75621;DHT22;64574;48.506;-2.750;2024-02-21T03:30:17;10.00;78.60
75621;DHT22;64574;48.506;-2.750;2024-02-21T03:32:42;10.00;78.50
75621;DHT22;64574;48.506;-2.750;2024-02-21T03:35:08;10.00;78.50
75621;DHT22;64574;48.506;-2.750;2024-02-21T03:37:33;10.10;78.40
75621;DHT22;64574;48.506;-2.750;2024-02-21T03:39:59;10.10;78.30
75621;DHT22;64574;48.506;-2.750;2024-02-21T03:42:24;10.00;78.30
75621;DHT22;64574;48.506;-2.750;2024-02-21T03:44:50;10.00;78.40
75621;DHT22;64574;48.506;-2.750;2024-02-21T03:47:16;10.10;78.30
75621;DHT22;64574;48.506;-2.750;2024-02-21T03:49:41;10.00;78.30
75621;DHT22;64574;48.506;-2.750;2024-02-21T03:52:07;10.10;78.40
75621;DHT22;64574;48.506;-2.750;2024-02-21T03:54:34;10.00;78.50
75621;DHT22;64574;48.506;-2.750;2024-02-21T03:56:59;10.00;78.60
75621;DHT22;64574;48.506;-2.750;2024-02-21T03:59:25;10.00;78.70
75621;DHT22;64574;48.506;-2.750;2024-02-21T04:01:53;10.10;78.70
75621;DHT22;64574;48.506;-2.750;2024-02-21T04:04:19;10.00;78.70
75621;DHT22;64574;48.506;-2.750;2024-02-21T04:06:48;10.10;78.90
75621;DHT22;64574;48.506;-2.750;2024-02-21T04:09:14;10.00;79.00
75621;DHT22;64574;48.506;-2.750;2024-02-21T04:11:39;10.10;78.90
75621;DHT22;64574;48.506;-2.750;2024-02-21T04:14:05;10.10;79.00
75621;DHT22;64574;48.506;-2.750;2024-02-21T04:16:30;10.00;78.90
75621;DHT22;64574;48.506;-2.750;2024-02-21T04:18:56;10.00;79.00
75621;DHT22;64574;48.506;-2.750;2024-02-21T04:21:21;10.00;79.10
75621;DHT22;64574;48.506;-2.750;2024-02-21T04:23:47;10.10;79.10
75621;DHT22;64574;48.506;-2.750;2024-02-21T04:26:12;10.00;79.20
75621;DHT22;64574;48.506;-2.750;2024-02-21T04:28:38;10.00;79.30
75621;DHT22;64574;48.506;-2.750;2024-02-21T04:31:04;10.10;79.40
75621;DHT22;64574;48.506;-2.750;2024-02-21T04:33:29;10.10;79.30
75621;DHT22;64574;48.506;-2.750;2024-02-21T04:35:55;10.10;79.40
75621;DHT22;64574;48.506;-2.750;2024-02-21T04:38:20;10.10;79.30
75621;DHT22;64574;48.506;-2.750;2024-02-21T04:40:46;10.10;79.40
75621;DHT22;64574;48.506;-2.750;2024-02-21T04:43:11;10.10;79.50
75621;DHT22;64574;48.506;-2.750;2024-02-21T04:45:37;10.10;79.50
75621;DHT22;64574;48.506;-2.750;2024-02-21T04:48:02;10.00;79.60
75621;DHT22;64574;48.506;-2.750;2024-02-21T04:50:28;10.00;79.60
75621;DHT22;64574;48.506;-2.750;2024-02-21T04:52:54;10.10;79.80
75621;DHT22;64574;48.506;-2.750;2024-02-21T04:55:19;10.00;79.70
75621;DHT22;64574;48.506;-2.750;2024-02-21T04:57:45;10.10;79.70
75621;DHT22;64574;48.506;-2.750;2024-02-21T05:00:10;10.10;79.80
75621;DHT22;64574;48.506;-2.750;2024-02-21T05:02:36;10.10;79.80
75621;DHT22;64574;48.506;-2.750;2024-02-21T05:05:01;10.10;79.80
75621;DHT22;64574;48.506;-2.750;2024-02-21T05:07:27;10.10;79.90
75621;DHT22;64574;48.506;-2.750;2024-02-21T05:09:53;10.10;80.00
75621;DHT22;64574;48.506;-2.750;2024-02-21T05:12:19;10.10;80.20
75621;DHT22;64574;48.506;-2.750;2024-02-21T05:14:44;10.10;80.30
75621;DHT22;64574;48.506;-2.750;2024-02-21T05:17:09;10.10;80.40
75621;DHT22;64574;48.506;-2.750;2024-02-21T05:19:35;10.10;80.50
75621;DHT22;64574;48.506;-2.750;2024-02-21T05:22:00;10.10;80.60
75621;DHT22;64574;48.506;-2.750;2024-02-21T05:24:26;10.10;80.80
75621;DHT22;64574;48.506;-2.750;2024-02-21T05:26:53;10.10;80.80
75621;DHT22;64574;48.506;-2.750;2024-02-21T05:29:18;10.10;80.70
75621;DHT22;64574;48.506;-2.750;2024-02-21T05:32:02;10.10;80.80
75621;DHT22;64574;48.506;-2.750;2024-02-21T05:34:27;10.10;80.80
75621;DHT22;64574;48.506;-2.750;2024-02-21T05:36:53;10.10;80.70
75621;DHT22;64574;48.506;-2.750;2024-02-21T05:39:19;10.10;80.70
75621;DHT22;64574;48.506;-2.750;2024-02-21T05:41:45;10.10;80.80
75621;DHT22;64574;48.506;-2.750;2024-02-21T05:44:10;10.10;80.70
75621;DHT22;64574;48.506;-2.750;2024-02-21T05:46:36;10.10;80.70
75621;DHT22;64574;48.506;-2.750;2024-02-21T05:49:01;10.10;80.70
75621;DHT22;64574;48.506;-2.750;2024-02-21T05:51:27;10.10;80.80
75621;DHT22;64574;48.506;-2.750;2024-02-21T05:53:53;10.10;81.00
75621;DHT22;64574;48.506;-2.750;2024-02-21T05:56:18;10.10;80.90
75621;DHT22;64574;48.506;-2.750;2024-02-21T05:58:44;10.10;81.00
75621;DHT22;64574;48.506;-2.750;2024-02-21T06:01:10;10.10;81.10
75621;DHT22;64574;48.506;-2.750;2024-02-21T06:03:35;10.10;81.20
75621;DHT22;64574;48.506;-2.750;2024-02-21T06:06:04;10.10;81.20
75621;DHT22;64574;48.506;-2.750;2024-02-21T06:08:30;10.10;81.30
75621;DHT22;64574;48.506;-2.750;2024-02-21T06:10:55;10.20;81.40
75621;DHT22;64574;48.506;-2.750;2024-02-21T06:13:21;10.20;81.30
75621;DHT22;64574;48.506;-2.750;2024-02-21T06:15:47;10.10;81.40
75621;DHT22;64574;48.506;-2.750;2024-02-21T06:18:13;10.10;81.50
75621;DHT22;64574;48.506;-2.750;2024-02-21T06:20:38;10.20;81.50
75621;DHT22;64574;48.506;-2.750;2024-02-21T06:23:06;10.20;81.50
75621;DHT22;64574;48.506;-2.750;2024-02-21T06:25:31;10.20;81.60
75621;DHT22;64574;48.506;-2.750;2024-02-21T06:27:57;10.20;81.70
75621;DHT22;64574;48.506;-2.750;2024-02-21T06:30:22;10.20;81.80
75621;DHT22;64574;48.506;-2.750;2024-02-21T06:32:48;10.20;82.00
75621;DHT22;64574;48.506;-2.750;2024-02-21T06:35:13;10.20;82.20
75621;DHT22;64574;48.506;-2.750;2024-02-21T06:37:39;10.20;82.40
75621;DHT22;64574;48.506;-2.750;2024-02-21T06:40:05;10.20;82.60
75621;DHT22;64574;48.506;-2.750;2024-02-21T06:42:31;10.20;82.90
75621;DHT22;64574;48.506;-2.750;2024-02-21T06:44:56;10.20;83.00
75621;DHT22;64574;48.506;-2.750;2024-02-21T06:47:22;10.10;83.30
75621;DHT22;64574;48.506;-2.750;2024-02-21T06:49:49;10.10;83.60
75621;DHT22;64574;48.506;-2.750;2024-02-21T06:52:16;10.10;83.90
75621;DHT22;64574;48.506;-2.750;2024-02-21T06:54:42;10.10;84.00
75621;DHT22;64574;48.506;-2.750;2024-02-21T06:57:08;10.10;84.10
75621;DHT22;64574;48.506;-2.750;2024-02-21T06:59:33;10.10;84.30
75621;DHT22;64574;48.506;-2.750;2024-02-21T07:01:59;10.10;84.10
75621;DHT22;64574;48.506;-2.750;2024-02-21T07:04:26;10.10;84.30
75621;DHT22;64574;48.506;-2.750;2024-02-21T07:06:52;10.10;84.40
75621;DHT22;64574;48.506;-2.750;2024-02-21T07:09:18;10.10;84.50
75621;DHT22;64574;48.506;-2.750;2024-02-21T07:11:43;10.10;84.50
75621;DHT22;64574;48.506;-2.750;2024-02-21T07:14:09;10.10;84.30
75621;DHT22;64574;48.506;-2.750;2024-02-21T07:16:35;10.10;84.30
75621;DHT22;64574;48.506;-2.750;2024-02-21T07:19:00;10.10;84.30
75621;DHT22;64574;48.506;-2.750;2024-02-21T07:21:26;10.10;84.40
75621;DHT22;64574;48.506;-2.750;2024-02-21T07:23:51;10.10;84.40
75621;DHT22;64574;48.506;-2.750;2024-02-21T07:26:17;10.00;84.40
75621;DHT22;64574;48.506;-2.750;2024-02-21T07:28:42;10.10;84.20
75621;DHT22;64574;48.506;-2.750;2024-02-21T07:31:08;10.10;84.20
75621;DHT22;64574;48.506;-2.750;2024-02-21T07:33:33;10.10;84.20
75621;DHT22;64574;48.506;-2.750;2024-02-21T07:36:01;10.10;84.20
75621;DHT22;64574;48.506;-2.750;2024-02-21T07:38:29;10.10;84.10
75621;DHT22;64574;48.506;-2.750;2024-02-21T07:40:54;10.10;84.00
75621;DHT22;64574;48.506;-2.750;2024-02-21T07:43:20;10.10;83.90
75621;DHT22;64574;48.506;-2.750;2024-02-21T07:45:47;10.10;83.80
75621;DHT22;64574;48.506;-2.750;2024-02-21T07:48:13;10.10;83.80
75621;DHT22;64574;48.506;-2.750;2024-02-21T07:50:38;10.10;83.80
75621;DHT22;64574;48.506;-2.750;2024-02-21T07:53:04;10.10;83.80
75621;DHT22;64574;48.506;-2.750;2024-02-21T07:55:29;10.10;83.70
75621;DHT22;64574;48.506;-2.750;2024-02-21T07:57:55;10.10;83.70
75621;DHT22;64574;48.506;-2.750;2024-02-21T08:00:21;10.10;83.70
75621;DHT22;64574;48.506;-2.750;2024-02-21T08:02:47;10.10;83.90
75621;DHT22;64574;48.506;-2.750;2024-02-21T08:05:13;10.10;83.80
75621;DHT22;64574;48.506;-2.750;2024-02-21T08:07:38;10.10;84.10
75621;DHT22;64574;48.506;-2.750;2024-02-21T08:10:04;10.10;84.10
75621;DHT22;64574;48.506;-2.750;2024-02-21T08:12:32;10.10;84.10
75621;DHT22;64574;48.506;-2.750;2024-02-21T08:14:58;10.10;84.30
75621;DHT22;64574;48.506;-2.750;2024-02-21T08:17:23;10.10;84.40
75621;DHT22;64574;48.506;-2.750;2024-02-21T08:19:49;10.10;84.50
75621;DHT22;64574;48.506;-2.750;2024-02-21T08:22:15;10.10;84.60
75621;DHT22;64574;48.506;-2.750;2024-02-21T08:24:40;10.10;84.50
75621;DHT22;64574;48.506;-2.750;2024-02-21T08:27:06;10.10;84.50
75621;DHT22;64574;48.506;-2.750;2024-02-21T08:29:31;10.10;84.50
75621;DHT22;64574;48.506;-2.750;2024-02-21T08:31:57;10.10;84.40
75621;DHT22;64574;48.506;-2.750;2024-02-21T08:34:22;10.20;84.30
75621;DHT22;64574;48.506;-2.750;2024-02-21T08:36:48;10.20;84.20
75621;DHT22;64574;48.506;-2.750;2024-02-21T08:39:13;10.20;84.20
75621;DHT22;64574;48.506;-2.750;2024-02-21T08:41:42;10.20;84.30
75621;DHT22;64574;48.506;-2.750;2024-02-21T08:44:07;10.20;84.50
75621;DHT22;64574;48.506;-2.750;2024-02-21T08:46:33;10.20;84.50
75621;DHT22;64574;48.506;-2.750;2024-02-21T08:48:58;10.20;84.70
75621;DHT22;64574;48.506;-2.750;2024-02-21T08:51:24;10.20;84.70
75621;DHT22;64574;48.506;-2.750;2024-02-21T08:53:49;10.20;84.70
75621;DHT22;64574;48.506;-2.750;2024-02-21T08:56:15;10.20;84.50
75621;DHT22;64574;48.506;-2.750;2024-02-21T08:58:41;10.20;84.50
75621;DHT22;64574;48.506;-2.750;2024-02-21T09:01:07;10.20;84.30
75621;DHT22;64574;48.506;-2.750;2024-02-21T09:03:39;10.20;84.50
75621;DHT22;64574;48.506;-2.750;2024-02-21T09:06:05;10.10;84.40
75621;DHT22;64574;48.506;-2.750;2024-02-21T09:08:30;10.20;84.20
75621;DHT22;64574;48.506;-2.750;2024-02-21T09:10:56;10.20;84.50
75621;DHT22;64574;48.506;-2.750;2024-02-21T09:13:22;10.20;84.30
75621;DHT22;64574;48.506;-2.750;2024-02-21T09:15:49;10.20;84.70
75621;DHT22;64574;48.506;-2.750;2024-02-21T09:18:15;10.20;84.60
75621;DHT22;64574;48.506;-2.750;2024-02-21T09:20:41;10.20;84.50
75621;DHT22;64574;48.506;-2.750;2024-02-21T09:23:07;10.10;84.50
75621;DHT22;64574;48.506;-2.750;2024-02-21T09:25:32;10.10;84.60
75621;DHT22;64574;48.506;-2.750;2024-02-21T09:27:58;10.20;84.70
75621;DHT22;64574;48.506;-2.750;2024-02-21T09:30:23;10.20;84.60
75621;DHT22;64574;48.506;-2.750;2024-02-21T09:32:49;10.20;84.50
75621;DHT22;64574;48.506;-2.750;2024-02-21T09:35:15;10.20;84.50
75621;DHT22;64574;48.506;-2.750;2024-02-21T09:37:40;10.20;84.40
75621;DHT22;64574;48.506;-2.750;2024-02-21T09:40:06;10.20;84.50
75621;DHT22;64574;48.506;-2.750;2024-02-21T09:42:38;10.30;84.20
75621;DHT22;64574;48.506;-2.750;2024-02-21T09:45:08;10.30;84.10
75621;DHT22;64574;48.506;-2.750;2024-02-21T09:47:37;10.20;84.40
75621;DHT22;64574;48.506;-2.750;2024-02-21T09:50:05;10.30;84.20
75621;DHT22;64574;48.506;-2.750;2024-02-21T09:52:31;10.40;84.10
75621;DHT22;64574;48.506;-2.750;2024-02-21T09:54:58;10.30;84.20
75621;DHT22;64574;48.506;-2.750;2024-02-21T09:57:24;10.40;84.30
75621;DHT22;64574;48.506;-2.750;2024-02-21T09:59:51;10.40;84.10
75621;DHT22;64574;48.506;-2.750;2024-02-21T10:02:17;10.40;84.40
75621;DHT22;64574;48.506;-2.750;2024-02-21T10:04:43;10.40;84.30
75621;DHT22;64574;48.506;-2.750;2024-02-21T10:07:08;10.40;84.30
75621;DHT22;64574;48.506;-2.750;2024-02-21T10:09:34;10.40;84.00
75621;DHT22;64574;48.506;-2.750;2024-02-21T10:12:09;10.40;83.90
75621;DHT22;64574;48.506;-2.750;2024-02-21T10:14:35;10.40;83.90
75621;DHT22;64574;48.506;-2.750;2024-02-21T10:17:01;10.50;83.90
75621;DHT22;64574;48.506;-2.750;2024-02-21T10:19:28;10.40;83.70
75621;DHT22;64574;48.506;-2.750;2024-02-21T10:22:07;10.50;83.50
75621;DHT22;64574;48.506;-2.750;2024-02-21T10:24:36;10.50;83.10
75621;DHT22;64574;48.506;-2.750;2024-02-21T10:27:04;10.50;82.90
75621;DHT22;64574;48.506;-2.750;2024-02-21T10:29:30;10.50;82.90
75621;DHT22;64574;48.506;-2.750;2024-02-21T10:34:34;10.50;82.90
75621;DHT22;64574;48.506;-2.750;2024-02-21T10:37:00;10.50;82.70
75621;DHT22;64574;48.506;-2.750;2024-02-21T10:39:26;10.40;83.10
75621;DHT22;64574;48.506;-2.750;2024-02-21T10:41:51;10.40;83.30
75621;DHT22;64574;48.506;-2.750;2024-02-21T10:44:17;10.40;83.30
75621;DHT22;64574;48.506;-2.750;2024-02-21T10:46:43;10.50;83.50
75621;DHT22;64574;48.506;-2.750;2024-02-21T10:49:27;10.50;83.20
75621;DHT22;64574;48.506;-2.750;2024-02-21T10:51:59;10.40;83.30
75621;DHT22;64574;48.506;-2.750;2024-02-21T10:54:34;10.40;83.30
75621;DHT22;64574;48.506;-2.750;2024-02-21T10:57:04;10.40;82.30
75621;DHT22;64574;48.506;-2.750;2024-02-21T10:59:32;10.40;81.80
75621;DHT22;64574;48.506;-2.750;2024-02-21T11:01:58;10.40;81.80
75621;DHT22;64574;48.506;-2.750;2024-02-21T11:04:25;10.30;81.20
75621;DHT22;64574;48.506;-2.750;2024-02-21T11:06:52;10.30;80.30
75621;DHT22;64574;48.506;-2.750;2024-02-21T11:09:17;10.30;79.60
75621;DHT22;64574;48.506;-2.750;2024-02-21T11:11:44;10.30;79.40
75621;DHT22;64574;48.506;-2.750;2024-02-21T11:14:22;10.30;79.40
75621;DHT22;64574;48.506;-2.750;2024-02-21T11:16:51;10.30;78.90
75621;DHT22;64574;48.506;-2.750;2024-02-21T11:21:50;10.30;78.20
75621;DHT22;64574;48.506;-2.750;2024-02-21T11:24:31;10.20;77.90
75621;DHT22;64574;48.506;-2.750;2024-02-21T11:27:11;10.10;77.40
75621;DHT22;64574;48.506;-2.750;2024-02-21T11:29:43;10.10;77.10
75621;DHT22;64574;48.506;-2.750;2024-02-21T11:32:10;10.10;77.00
75621;DHT22;64574;48.506;-2.750;2024-02-21T11:34:36;10.10;77.40
75621;DHT22;64574;48.506;-2.750;2024-02-21T11:37:02;10.10;77.50
75621;DHT22;64574;48.506;-2.750;2024-02-21T11:39:37;10.20;78.10
75621;DHT22;64574;48.506;-2.750;2024-02-21T11:42:04;10.20;77.80
75621;DHT22;64574;48.506;-2.750;2024-02-21T11:44:31;10.20;77.60
75621;DHT22;64574;48.506;-2.750;2024-02-21T11:46:56;10.30;77.60
75621;DHT22;64574;48.506;-2.750;2024-02-21T11:49:24;10.30;77.10
75621;DHT22;64574;48.506;-2.750;2024-02-21T11:51:57;10.30;77.20
75621;DHT22;64574;48.506;-2.750;2024-02-21T11:54:22;10.30;77.80
75621;DHT22;64574;48.506;-2.750;2024-02-21T11:56:48;10.40;77.30
75621;DHT22;64574;48.506;-2.750;2024-02-21T11:59:13;10.40;77.80
75621;DHT22;64574;48.506;-2.750;2024-02-21T12:01:39;10.30;78.20
75621;DHT22;64574;48.506;-2.750;2024-02-21T12:04:04;10.40;78.50
75621;DHT22;64574;48.506;-2.750;2024-02-21T12:06:30;10.30;79.00
75621;DHT22;64574;48.506;-2.750;2024-02-21T12:08:58;10.30;79.10
75621;DHT22;64574;48.506;-2.750;2024-02-21T12:11:24;10.40;79.60
75621;DHT22;64574;48.506;-2.750;2024-02-21T12:14:03;10.40;80.00
75621;DHT22;64574;48.506;-2.750;2024-02-21T12:16:30;10.40;80.20
75621;DHT22;64574;48.506;-2.750;2024-02-21T12:18:56;10.50;80.30
75621;DHT22;64574;48.506;-2.750;2024-02-21T12:21:29;10.50;80.90
75621;DHT22;64574;48.506;-2.750;2024-02-21T12:23:55;10.50;81.20
75621;DHT22;64574;48.506;-2.750;2024-02-21T12:26:21;10.50;81.80
75621;DHT22;64574;48.506;-2.750;2024-02-21T12:28:47;10.50;81.80
75621;DHT22;64574;48.506;-2.750;2024-02-21T12:31:12;10.50;82.50
75621;DHT22;64574;48.506;-2.750;2024-02-21T12:33:38;10.60;82.90
75621;DHT22;64574;48.506;-2.750;2024-02-21T12:36:04;10.70;82.80
75621;DHT22;64574;48.506;-2.750;2024-02-21T12:38:29;10.80;82.90
75621;DHT22;64574;48.506;-2.750;2024-02-21T12:40:55;10.80;83.00
75621;DHT22;64574;48.506;-2.750;2024-02-21T12:43:22;10.80;83.50
75621;DHT22;64574;48.506;-2.750;2024-02-21T12:45:48;10.70;84.10
75621;DHT22;64574;48.506;-2.750;2024-02-21T12:48:14;10.80;84.50
75621;DHT22;64574;48.506;-2.750;2024-02-21T12:50:42;10.80;84.70
75621;DHT22;64574;48.506;-2.750;2024-02-21T12:53:13;10.90;85.00
75621;DHT22;64574;48.506;-2.750;2024-02-21T12:55:38;11.00;85.10
75621;DHT22;64574;48.506;-2.750;2024-02-21T12:58:04;11.10;85.40
75621;DHT22;64574;48.506;-2.750;2024-02-21T13:00:32;11.10;85.20
75621;DHT22;64574;48.506;-2.750;2024-02-21T13:02:57;11.20;85.30
75621;DHT22;64574;48.506;-2.750;2024-02-21T13:05:23;11.10;85.40
75621;DHT22;64574;48.506;-2.750;2024-02-21T13:07:48;11.20;86.00
75621;DHT22;64574;48.506;-2.750;2024-02-21T13:10:14;11.20;86.10
75621;DHT22;64574;48.506;-2.750;2024-02-21T13:12:40;11.20;86.70
75621;DHT22;64574;48.506;-2.750;2024-02-21T13:15:06;11.20;86.80
75621;DHT22;64574;48.506;-2.750;2024-02-21T13:17:31;11.20;87.10
75621;DHT22;64574;48.506;-2.750;2024-02-21T13:19:57;11.20;87.10
75621;DHT22;64574;48.506;-2.750;2024-02-21T13:22:23;11.30;87.20
75621;DHT22;64574;48.506;-2.750;2024-02-21T13:24:55;11.40;87.40
75621;DHT22;64574;48.506;-2.750;2024-02-21T13:27:23;11.40;87.50
75621;DHT22;64574;48.506;-2.750;2024-02-21T13:29:48;11.50;87.60
75621;DHT22;64574;48.506;-2.750;2024-02-21T13:32:14;11.50;87.50
75621;DHT22;64574;48.506;-2.750;2024-02-21T13:34:41;11.60;87.60
75621;DHT22;64574;48.506;-2.750;2024-02-21T13:37:07;11.60;87.60
75621;DHT22;64574;48.506;-2.750;2024-02-21T13:39:35;11.70;87.70
75621;DHT22;64574;48.506;-2.750;2024-02-21T13:42:01;11.70;87.80
75621;DHT22;64574;48.506;-2.750;2024-02-21T13:44:26;11.80;88.00
75621;DHT22;64574;48.506;-2.750;2024-02-21T13:46:52;11.90;87.90
75621;DHT22;64574;48.506;-2.750;2024-02-21T13:49:17;11.80;88.00
75621;DHT22;64574;48.506;-2.750;2024-02-21T13:51:43;11.90;88.20
75621;DHT22;64574;48.506;-2.750;2024-02-21T13:54:10;11.90;88.20
75621;DHT22;64574;48.506;-2.750;2024-02-21T13:56:37;11.90;88.40
75621;DHT22;64574;48.506;-2.750;2024-02-21T13:59:02;11.90;88.60
75621;DHT22;64574;48.506;-2.750;2024-02-21T14:01:28;11.90;88.70
75621;DHT22;64574;48.506;-2.750;2024-02-21T14:03:53;11.90;88.90
75621;DHT22;64574;48.506;-2.750;2024-02-21T14:06:19;11.80;89.00
75621;DHT22;64574;48.506;-2.750;2024-02-21T14:08:45;11.90;89.10
75621;DHT22;64574;48.506;-2.750;2024-02-21T14:11:10;11.80;89.40
75621;DHT22;64574;48.506;-2.750;2024-02-21T14:13:36;11.90;89.50
75621;DHT22;64574;48.506;-2.750;2024-02-21T14:16:02;11.90;89.70
75621;DHT22;64574;48.506;-2.750;2024-02-21T14:18:27;11.80;89.70
75621;DHT22;64574;48.506;-2.750;2024-02-21T14:20:53;11.90;89.90
75621;DHT22;64574;48.506;-2.750;2024-02-21T14:23:18;11.90;90.00
75621;DHT22;64574;48.506;-2.750;2024-02-21T14:25:44;11.90;90.00
75621;DHT22;64574;48.506;-2.750;2024-02-21T14:28:10;11.90;90.00
75621;DHT22;64574;48.506;-2.750;2024-02-21T14:30:35;11.90;90.10
75621;DHT22;64574;48.506;-2.750;2024-02-21T14:33:01;11.90;90.10
75621;DHT22;64574;48.506;-2.750;2024-02-21T14:35:26;12.00;90.00
75621;DHT22;64574;48.506;-2.750;2024-02-21T14:37:52;12.00;90.10
75621;DHT22;64574;48.506;-2.750;2024-02-21T14:40:26;12.00;90.10
75621;DHT22;64574;48.506;-2.750;2024-02-21T14:42:55;12.10;90.10
75621;DHT22;64574;48.506;-2.750;2024-02-21T14:45:21;12.00;90.10
75621;DHT22;64574;48.506;-2.750;2024-02-21T14:47:48;12.00;90.30
75621;DHT22;64574;48.506;-2.750;2024-02-21T14:50:14;12.00;90.40
75621;DHT22;64574;48.506;-2.750;2024-02-21T14:52:39;12.00;90.50
75621;DHT22;64574;48.506;-2.750;2024-02-21T14:55:05;12.00;90.70
75621;DHT22;64574;48.506;-2.750;2024-02-21T14:57:31;12.00;90.80
75621;DHT22;64574;48.506;-2.750;2024-02-21T14:59:57;12.00;90.90
75621;DHT22;64574;48.506;-2.750;2024-02-21T15:02:24;12.00;91.00
75621;DHT22;64574;48.506;-2.750;2024-02-21T15:04:49;12.00;91.00
75621;DHT22;64574;48.506;-2.750;2024-02-21T15:07:17;12.00;91.00
75621;DHT22;64574;48.506;-2.750;2024-02-21T15:09:42;12.00;91.10
75621;DHT22;64574;48.506;-2.750;2024-02-21T15:12:08;12.00;91.20
75621;DHT22;64574;48.506;-2.750;2024-02-21T15:14:34;12.00;91.30
75621;DHT22;64574;48.506;-2.750;2024-02-21T15:17:00;12.00;91.30